createdAt,value
2023-05-19T00:00:37.719Z,13.07
2023-05-19T00:01:16.670Z,13.17
2023-05-19T00:02:16.616Z,13.17
2023-05-19T00:03:16.662Z,13.15
2023-05-19T00:04:16.424Z,13.10
2023-05-19T00:05:16.331Z,13.18
2023-05-19T00:06:37.256Z,13.15
2023-05-19T00:07:16.174Z,13.19
2023-05-19T00:08:16.092Z,13.07
2023-05-19T00:09:16.031Z,13.09
2023-05-19T00:10:15.931Z,13.06
2023-05-19T00:11:15.862Z,13.07
2023-05-19T00:12:36.762Z,12.97
2023-05-19T00:13:15.692Z,12.99
2023-05-19T00:14:15.630Z,13.04
2023-05-19T00:15:15.550Z,13.09
2023-05-19T00:16:15.463Z,13.06
2023-05-19T00:17:15.374Z,13.00
2023-05-19T00:18:36.319Z,13.07
2023-05-19T00:19:15.244Z,13.03
2023-05-19T00:20:15.150Z,13.02
2023-05-19T00:21:15.077Z,13.07
2023-05-19T00:22:14.977Z,13.03
2023-05-19T00:23:14.900Z,13.03
2023-05-19T00:24:35.816Z,12.99
2023-05-19T00:25:14.751Z,12.99
2023-05-19T00:26:14.670Z,13.04
2023-05-19T00:27:14.592Z,12.96
2023-05-19T00:28:14.512Z,12.97
2023-05-19T00:29:14.436Z,12.99
2023-05-19T00:30:35.357Z,13.03
2023-05-19T00:31:14.287Z,13.02
2023-05-19T00:32:14.299Z,13.06
2023-05-19T00:33:14.127Z,13.00
2023-05-19T00:34:14.038Z,13.00
2023-05-19T00:35:13.957Z,13.10
2023-05-19T00:36:34.860Z,13.00
2023-05-19T00:37:13.801Z,12.97
2023-05-19T00:38:13.717Z,12.99
2023-05-19T00:39:13.638Z,12.94
2023-05-19T00:40:13.571Z,12.91
2023-05-19T00:41:13.483Z,12.91
2023-05-19T00:42:34.381Z,12.84
2023-05-19T00:43:13.363Z,12.86
2023-05-19T00:44:13.229Z,12.78
2023-05-19T00:45:13.188Z,12.81
2023-05-19T00:46:13.164Z,12.79
2023-05-19T00:47:12.998Z,12.71
2023-05-19T00:48:33.911Z,12.71
2023-05-19T00:49:12.843Z,12.67
2023-05-19T00:50:12.772Z,12.73
2023-05-19T00:51:12.683Z,12.60
2023-05-19T00:52:12.605Z,12.63
2023-05-19T00:53:12.537Z,12.67
2023-05-19T00:54:33.442Z,12.61
2023-05-19T00:55:12.385Z,12.71
2023-05-19T00:56:12.289Z,12.69
2023-05-19T00:57:12.212Z,12.69
2023-05-19T00:58:12.129Z,12.67
2023-05-19T00:59:12.059Z,12.67
2023-05-19T01:00:33.248Z,12.59
2023-05-19T01:01:11.912Z,12.63
2023-05-19T01:02:11.846Z,12.53
2023-05-19T01:03:11.870Z,12.60
2023-05-19T01:04:11.717Z,12.59
2023-05-19T01:05:11.573Z,12.59
2023-05-19T01:06:32.483Z,12.66
2023-05-19T01:07:11.433Z,12.55
2023-05-19T01:08:11.383Z,12.53
2023-05-19T01:09:11.261Z,12.46
2023-05-19T01:10:11.187Z,12.55
2023-05-19T01:11:11.109Z,12.53
2023-05-19T01:12:31.992Z,12.44
2023-05-19T01:13:10.956Z,12.59
2023-05-19T01:14:10.864Z,12.46
2023-05-19T01:15:10.782Z,12.59
2023-05-19T01:16:10.751Z,12.60
2023-05-19T01:17:10.634Z,12.56
2023-05-19T01:18:31.525Z,12.56
2023-05-19T01:19:10.536Z,12.61
2023-05-19T01:20:10.388Z,12.61
2023-05-19T01:21:10.314Z,12.52
2023-05-19T01:22:10.219Z,12.53
2023-05-19T01:23:10.157Z,12.45
2023-05-19T01:24:31.048Z,12.56
2023-05-19T01:25:09.996Z,12.55
2023-05-19T01:26:09.912Z,12.49
2023-05-19T01:27:09.836Z,12.60
2023-05-19T01:28:09.746Z,12.60
2023-05-19T01:29:09.669Z,12.49
2023-05-19T01:30:30.752Z,12.63
2023-05-19T01:31:09.530Z,12.64
2023-05-19T01:32:09.469Z,12.46
2023-05-19T01:33:09.447Z,12.59
2023-05-19T01:34:09.289Z,12.59
2023-05-19T01:35:09.202Z,12.59
2023-05-19T01:36:30.092Z,12.48
2023-05-19T01:37:09.052Z,12.49
2023-05-19T01:38:08.968Z,12.42
2023-05-19T01:39:08.886Z,12.39
2023-05-19T01:40:08.812Z,12.49
2023-05-19T01:41:08.724Z,12.45
2023-05-19T01:42:29.613Z,12.45
2023-05-19T01:43:08.564Z,12.44
2023-05-19T01:44:08.504Z,12.48
2023-05-19T01:45:08.409Z,12.44
2023-05-19T01:46:08.418Z,12.44
2023-05-19T01:47:08.249Z,12.42
2023-05-19T01:48:29.136Z,12.44
2023-05-19T01:49:08.081Z,12.41
2023-05-19T01:50:08.011Z,12.36
2023-05-19T01:51:07.926Z,12.33
2023-05-19T01:52:07.859Z,12.33
2023-05-19T01:53:07.780Z,12.37
2023-05-19T01:54:28.698Z,12.37
2023-05-19T01:55:07.624Z,12.37
2023-05-19T01:56:07.536Z,12.33
2023-05-19T01:57:07.443Z,12.42
2023-05-19T01:58:07.409Z,12.37
2023-05-19T01:59:07.290Z,12.31
2023-05-19T02:00:28.198Z,12.31
2023-05-19T02:01:07.177Z,12.30
2023-05-19T02:02:07.045Z,12.30
2023-05-19T02:03:07.133Z,12.34
2023-05-19T02:04:06.934Z,12.24
2023-05-19T02:05:06.821Z,12.27
2023-05-19T02:06:27.727Z,12.21
2023-05-19T02:07:06.672Z,12.16
2023-05-19T02:08:06.575Z,12.21
2023-05-19T02:09:06.495Z,12.06
2023-05-19T02:10:06.452Z,12.06
2023-05-19T02:11:06.350Z,12.08
2023-05-19T02:12:27.242Z,12.06
2023-05-19T02:13:06.220Z,12.03
2023-05-19T02:14:06.115Z,12.00
2023-05-19T02:15:06.030Z,12.08
2023-05-19T02:16:06.117Z,12.06
2023-05-19T02:17:05.870Z,12.00
2023-05-19T02:18:26.764Z,11.94
2023-05-19T02:19:05.706Z,12.00
2023-05-19T02:20:05.619Z,11.95
2023-05-19T02:21:05.545Z,11.95
2023-05-19T02:22:05.466Z,11.90
2023-05-19T02:23:05.415Z,11.81
2023-05-19T02:24:26.281Z,11.84
2023-05-19T02:25:05.230Z,11.75
2023-05-19T02:26:05.137Z,11.68
2023-05-19T02:27:05.069Z,11.57
2023-05-19T02:28:04.993Z,11.54
2023-05-19T02:29:04.909Z,11.49
2023-05-19T02:30:25.803Z,11.50
2023-05-19T02:31:04.731Z,11.42
2023-05-19T02:32:04.682Z,11.43
2023-05-19T02:33:04.598Z,11.31
2023-05-19T02:34:04.500Z,11.35
2023-05-19T02:35:04.429Z,11.29
2023-05-19T02:36:25.318Z,11.32
2023-05-19T02:37:04.261Z,11.21
2023-05-19T02:38:04.203Z,11.18
2023-05-19T02:39:04.101Z,11.14
2023-05-19T02:40:04.020Z,11.16
2023-05-19T02:41:03.944Z,11.11
2023-05-19T02:42:24.861Z,11.08
2023-05-19T02:43:03.776Z,11.08
2023-05-19T02:44:03.705Z,11.10
2023-05-19T02:45:03.613Z,10.99
2023-05-19T02:46:03.582Z,10.92
2023-05-19T02:47:03.489Z,10.80
2023-05-19T02:48:24.384Z,10.87
2023-05-19T02:49:03.303Z,10.80
2023-05-19T02:50:03.233Z,10.74
2023-05-19T02:51:03.179Z,10.65
2023-05-19T02:52:03.050Z,10.73
2023-05-19T02:53:02.992Z,10.71
2023-05-19T02:54:23.873Z,10.65
2023-05-19T02:55:02.815Z,10.66
2023-05-19T02:56:02.749Z,10.77
2023-05-19T02:57:02.663Z,10.74
2023-05-19T02:58:02.585Z,10.74
2023-05-19T02:59:02.510Z,10.75
2023-05-19T03:00:23.401Z,10.77
2023-05-19T03:01:02.336Z,10.75
2023-05-19T03:02:02.343Z,10.74
2023-05-19T03:03:02.337Z,10.77
2023-05-19T03:04:02.396Z,10.77
2023-05-19T03:05:02.030Z,10.69
2023-05-19T03:06:22.916Z,10.74
2023-05-19T03:07:01.857Z,10.67
2023-05-19T03:08:01.794Z,10.63
2023-05-19T03:09:01.691Z,10.63
2023-05-19T03:10:01.609Z,10.58
2023-05-19T03:11:01.533Z,10.58
2023-05-19T03:12:22.442Z,10.60
2023-05-19T03:13:01.370Z,10.58
2023-05-19T03:14:01.321Z,10.62
2023-05-19T03:15:01.210Z,10.58
2023-05-19T03:16:01.167Z,10.58
2023-05-19T03:17:01.088Z,10.55
2023-05-19T03:18:21.996Z,10.53
2023-05-19T03:19:00.923Z,10.47
2023-05-19T03:20:00.813Z,10.43
2023-05-19T03:21:00.746Z,10.39
2023-05-19T03:22:00.693Z,10.40
2023-05-19T03:23:00.574Z,10.37
2023-05-19T03:24:21.500Z,10.40
2023-05-19T03:25:00.407Z,10.36
2023-05-19T03:26:00.350Z,10.34
2023-05-19T03:27:00.250Z,10.33
2023-05-19T03:28:00.176Z,10.39
2023-05-19T03:29:00.107Z,10.36
2023-05-19T03:30:20.991Z,10.34
2023-05-19T03:30:59.936Z,10.40
2023-05-19T03:31:59.985Z,10.40
2023-05-19T03:32:59.831Z,10.36
2023-05-19T03:33:59.716Z,10.31
2023-05-19T03:34:59.607Z,10.34
2023-05-19T03:36:20.529Z,10.36
2023-05-19T03:36:59.445Z,10.33
2023-05-19T03:37:59.379Z,10.31
2023-05-19T03:38:59.279Z,10.25
2023-05-19T03:39:59.208Z,10.28
2023-05-19T03:40:59.131Z,10.28
2023-05-19T03:42:20.034Z,10.23
2023-05-19T03:42:58.980Z,10.19
2023-05-19T03:43:58.887Z,10.15
2023-05-19T03:44:58.817Z,10.19
2023-05-19T03:45:58.759Z,10.15
2023-05-19T03:46:58.653Z,10.11
2023-05-19T03:48:21.259Z,10.03
2023-05-19T03:48:58.497Z,10.07
2023-05-19T03:49:58.393Z,10.06
2023-05-19T03:50:58.318Z,10.08
2023-05-19T03:51:58.241Z,10.04
2023-05-19T03:52:58.164Z,10.07
2023-05-19T03:54:19.081Z,10.07
2023-05-19T03:54:57.999Z,10.07
2023-05-19T03:55:57.931Z,10.08
2023-05-19T03:56:57.840Z,10.04
2023-05-19T03:57:57.762Z,9.98
2023-05-19T03:58:57.691Z,10.01
2023-05-19T04:00:18.587Z,9.97
2023-05-19T04:00:57.528Z,9.93
2023-05-19T04:01:57.478Z,9.97
2023-05-19T04:02:57.418Z,9.92
2023-05-19T04:03:57.270Z,9.90
2023-05-19T04:04:57.203Z,9.79
2023-05-19T04:06:18.092Z,9.75
2023-05-19T04:06:57.032Z,9.65
2023-05-19T04:07:56.949Z,9.56
2023-05-19T04:08:56.869Z,9.61
2023-05-19T04:09:56.778Z,9.64
2023-05-19T04:10:56.706Z,9.55
2023-05-19T04:12:17.618Z,9.61
2023-05-19T04:12:56.559Z,9.55
2023-05-19T04:13:56.472Z,9.52
2023-05-19T04:14:56.388Z,9.53
2023-05-19T04:15:56.403Z,9.61
2023-05-19T04:16:56.214Z,9.58
2023-05-19T04:18:17.124Z,9.52
2023-05-19T04:18:56.105Z,9.50
2023-05-19T04:19:55.986Z,9.58
2023-05-19T04:20:55.887Z,9.40
2023-05-19T04:21:55.804Z,9.38
2023-05-19T04:22:55.733Z,9.37
2023-05-19T04:24:16.656Z,9.38
2023-05-19T04:24:55.583Z,9.45
2023-05-19T04:25:55.481Z,9.45
2023-05-19T04:26:55.405Z,9.50
2023-05-19T04:27:55.345Z,9.49
2023-05-19T04:28:55.239Z,9.55
2023-05-19T04:30:18.452Z,9.60
2023-05-19T04:30:55.142Z,9.60
2023-05-19T04:31:54.999Z,9.60
2023-05-19T04:32:54.953Z,9.53
2023-05-19T04:33:54.840Z,9.58
2023-05-19T04:34:54.752Z,9.52
2023-05-19T04:36:15.658Z,9.58
2023-05-19T04:36:54.606Z,9.49
2023-05-19T04:37:54.519Z,9.53
2023-05-19T04:38:54.433Z,9.56
2023-05-19T04:39:54.353Z,9.49
2023-05-19T04:40:54.271Z,9.49
2023-05-19T04:42:15.191Z,9.50
2023-05-19T04:42:54.171Z,9.55
2023-05-19T04:43:54.034Z,9.56
2023-05-19T04:44:53.965Z,9.53
2023-05-19T04:45:53.885Z,9.47
2023-05-19T04:46:53.836Z,9.64
2023-05-19T04:48:14.687Z,9.67
2023-05-19T04:48:53.642Z,9.70
2023-05-19T04:49:53.542Z,9.68
2023-05-19T04:50:53.493Z,9.80
2023-05-19T04:51:55.601Z,9.83
2023-05-19T04:52:53.299Z,9.83
2023-05-19T04:54:14.238Z,9.82
2023-05-19T04:54:53.146Z,9.89
2023-05-19T04:55:53.079Z,9.90
2023-05-19T04:56:52.974Z,9.85
2023-05-19T04:57:52.912Z,9.98
2023-05-19T04:58:52.812Z,10.00
2023-05-19T05:00:13.756Z,10.03
2023-05-19T05:00:52.670Z,9.96
2023-05-19T05:01:52.584Z,10.01
2023-05-19T05:02:52.547Z,10.10
2023-05-19T05:03:52.451Z,10.08
2023-05-19T05:04:52.334Z,10.15
2023-05-19T05:06:13.224Z,10.18
2023-05-19T05:06:52.169Z,10.21
2023-05-19T05:07:52.086Z,10.15
2023-05-19T05:08:52.042Z,10.23
2023-05-19T05:09:51.939Z,10.22
2023-05-19T05:10:51.847Z,10.33
2023-05-19T05:12:12.732Z,10.31
2023-05-19T05:12:51.697Z,10.31
2023-05-19T05:13:51.603Z,10.40
2023-05-19T05:14:51.510Z,10.40
2023-05-19T05:15:51.449Z,10.46
2023-05-19T05:16:51.412Z,10.47
2023-05-19T05:18:12.259Z,10.46
2023-05-19T05:18:51.204Z,10.49
2023-05-19T05:19:51.124Z,10.53
2023-05-19T05:20:51.037Z,10.55
2023-05-19T05:21:52.054Z,10.56
2023-05-19T05:22:50.876Z,10.58
2023-05-19T05:24:11.767Z,10.62
2023-05-19T05:24:50.693Z,10.66
2023-05-19T05:25:50.628Z,10.71
2023-05-19T05:26:50.541Z,10.69
2023-05-19T05:27:50.455Z,10.75
2023-05-19T05:28:50.397Z,10.85
2023-05-19T05:30:11.275Z,10.85
2023-05-19T05:30:50.216Z,10.85
2023-05-19T05:31:50.145Z,10.88
2023-05-19T05:32:50.104Z,11.02
2023-05-19T05:33:50.057Z,11.02
2023-05-19T05:34:49.897Z,11.05
2023-05-19T05:36:10.789Z,11.11
2023-05-19T05:36:49.729Z,11.08
2023-05-19T05:37:49.665Z,11.14
2023-05-19T05:38:49.560Z,11.23
2023-05-19T05:39:49.496Z,11.24
2023-05-19T05:40:49.406Z,11.32
2023-05-19T05:42:10.313Z,11.28
2023-05-19T05:42:49.245Z,11.34
2023-05-19T05:43:49.190Z,11.38
2023-05-19T05:44:49.094Z,11.36
2023-05-19T05:45:49.061Z,11.51
2023-05-19T05:46:48.955Z,11.53
2023-05-19T05:48:09.885Z,11.56
2023-05-19T05:48:48.790Z,11.57
2023-05-19T05:49:48.710Z,11.57
2023-05-19T05:50:48.619Z,11.59
2023-05-19T05:52:01.947Z,11.65
2023-05-19T05:52:48.460Z,11.72
2023-05-19T05:54:09.348Z,11.75
2023-05-19T05:54:48.289Z,11.81
2023-05-19T05:55:48.201Z,11.87
2023-05-19T05:56:48.135Z,11.90
2023-05-19T05:57:48.038Z,11.93
2023-05-19T05:58:47.974Z,11.94
2023-05-19T06:00:08.907Z,11.95
2023-05-19T06:00:47.806Z,12.03
2023-05-19T06:01:47.724Z,12.15
2023-05-19T06:02:47.732Z,12.21
2023-05-19T06:03:47.606Z,12.18
2023-05-19T06:04:47.503Z,12.24
2023-05-19T06:06:08.389Z,12.24
2023-05-19T06:06:47.339Z,12.13
2023-05-19T06:07:47.246Z,12.26
2023-05-19T06:08:47.178Z,12.34
2023-05-19T06:09:47.084Z,12.30
2023-05-19T06:10:47.577Z,12.34
2023-05-19T06:12:07.918Z,12.41
2023-05-19T06:12:46.849Z,12.39
2023-05-19T06:13:46.763Z,12.44
2023-05-19T06:14:46.690Z,12.46
2023-05-19T06:15:46.645Z,12.45
2023-05-19T06:16:46.513Z,12.56
2023-05-19T06:18:07.473Z,12.59
2023-05-19T06:18:46.374Z,12.64
2023-05-19T06:19:46.274Z,12.61
2023-05-19T06:20:46.202Z,12.56
2023-05-19T06:21:46.140Z,12.63
2023-05-19T06:22:46.060Z,12.59
2023-05-19T06:24:06.947Z,12.59
2023-05-19T06:24:45.898Z,12.64
2023-05-19T06:25:45.801Z,12.61
2023-05-19T06:26:45.736Z,12.67
2023-05-19T06:27:45.660Z,12.69
2023-05-19T06:28:45.573Z,12.66
2023-05-19T06:30:06.473Z,12.70
2023-05-19T06:30:45.405Z,12.71
2023-05-19T06:31:45.337Z,12.70
2023-05-19T06:32:45.315Z,12.70
2023-05-19T06:33:45.172Z,12.77
2023-05-19T06:34:45.085Z,12.73
2023-05-19T06:36:05.989Z,12.78
2023-05-19T06:36:44.922Z,12.77
2023-05-19T06:37:44.855Z,12.79
2023-05-19T06:38:44.764Z,12.86
2023-05-19T06:39:44.693Z,12.92
2023-05-19T06:40:44.595Z,12.89
2023-05-19T06:42:05.509Z,12.99
2023-05-19T06:42:44.442Z,12.99
2023-05-19T06:43:44.366Z,13.02
2023-05-19T06:44:44.298Z,13.04
2023-05-19T06:45:44.230Z,13.00
2023-05-19T06:46:44.152Z,13.03
2023-05-19T06:48:05.102Z,13.11
2023-05-19T06:48:43.969Z,13.14
2023-05-19T06:49:43.894Z,13.17
2023-05-19T06:50:43.818Z,13.24
2023-05-19T06:51:43.740Z,13.19
2023-05-19T06:52:43.637Z,13.24
2023-05-19T06:54:04.557Z,13.29
2023-05-19T06:54:43.483Z,13.38
2023-05-19T06:55:54.763Z,13.48
2023-05-19T06:56:43.342Z,13.53
2023-05-19T06:57:43.301Z,13.58
2023-05-19T06:58:43.173Z,13.59
2023-05-19T07:00:04.076Z,13.55
2023-05-19T07:00:43.008Z,13.55
2023-05-19T07:01:42.987Z,13.65
2023-05-19T07:02:42.911Z,13.81
2023-05-19T07:03:42.866Z,13.81
2023-05-19T07:04:42.698Z,13.77
2023-05-19T07:06:04.624Z,13.89
2023-05-19T07:06:42.540Z,13.80
2023-05-19T07:07:42.459Z,13.89
2023-05-19T07:08:42.391Z,13.96
2023-05-19T07:09:42.296Z,13.96
2023-05-19T07:10:42.212Z,13.94
2023-05-19T07:12:03.133Z,13.84
2023-05-19T07:12:42.064Z,13.87
2023-05-19T07:13:41.983Z,13.96
2023-05-19T07:14:41.908Z,13.94
2023-05-19T07:15:41.825Z,14.01
2023-05-19T07:16:41.746Z,14.03
2023-05-19T07:18:02.693Z,14.03
2023-05-19T07:18:41.600Z,14.13
2023-05-19T07:19:41.513Z,14.14
2023-05-19T07:20:41.433Z,14.20
2023-05-19T07:21:41.359Z,14.13
2023-05-19T07:22:41.257Z,14.24
2023-05-19T07:24:02.166Z,14.24
2023-05-19T07:24:41.102Z,14.36
2023-05-19T07:25:41.048Z,14.49
2023-05-19T07:26:40.953Z,14.44
2023-05-19T07:27:40.889Z,14.52
2023-05-19T07:28:41.683Z,14.60
2023-05-19T07:30:01.700Z,14.59
2023-05-19T07:30:40.643Z,14.72
2023-05-19T07:31:40.599Z,14.80
2023-05-19T07:32:40.496Z,14.87
2023-05-19T07:33:40.390Z,14.83
2023-05-19T07:34:40.327Z,14.74
2023-05-19T07:36:01.225Z,14.78
2023-05-19T07:36:40.149Z,14.80
2023-05-19T07:37:40.090Z,14.90
2023-05-19T07:38:40.066Z,14.93
2023-05-19T07:39:39.935Z,15.02
2023-05-19T07:40:39.842Z,15.02
2023-05-19T07:42:00.742Z,15.13
2023-05-19T07:42:39.682Z,15.24
2023-05-19T07:43:39.617Z,15.27
2023-05-19T07:44:39.520Z,15.31
2023-05-19T07:45:39.496Z,15.35
2023-05-19T07:46:39.500Z,15.46
2023-05-19T07:48:00.295Z,15.51
2023-05-19T07:48:39.225Z,15.52
2023-05-19T07:49:39.157Z,15.59
2023-05-19T07:50:39.055Z,15.66
2023-05-19T07:51:38.989Z,15.71
2023-05-19T07:52:38.912Z,15.82
2023-05-19T07:53:59.810Z,15.82
2023-05-19T07:54:38.733Z,15.78
2023-05-19T07:55:38.666Z,15.78
2023-05-19T07:56:38.580Z,15.60
2023-05-19T07:57:38.500Z,15.59
2023-05-19T07:58:38.443Z,15.46
2023-05-19T07:59:59.322Z,15.48
2023-05-19T08:00:38.266Z,15.42
2023-05-19T08:01:38.190Z,15.33
2023-05-19T08:02:38.162Z,15.24
2023-05-19T08:03:38.147Z,15.13
2023-05-19T08:04:38.012Z,15.15
2023-05-19T08:05:58.880Z,15.06
2023-05-19T08:06:37.806Z,15.10
2023-05-19T08:07:37.740Z,15.13
2023-05-19T08:08:37.647Z,15.15
2023-05-19T08:09:37.578Z,15.15
2023-05-19T08:10:37.522Z,15.21
2023-05-19T08:11:58.383Z,15.13
2023-05-19T08:12:37.343Z,15.10
2023-05-19T08:13:37.271Z,15.08
2023-05-19T08:14:37.174Z,15.13
2023-05-19T08:15:37.135Z,15.13
2023-05-19T08:16:37.019Z,15.13
2023-05-19T08:17:57.963Z,15.15
2023-05-19T08:18:36.996Z,15.15
2023-05-19T08:19:36.800Z,15.27
2023-05-19T08:20:36.740Z,15.24
2023-05-19T08:21:36.800Z,15.27
2023-05-19T08:22:36.564Z,15.24
2023-05-19T08:23:57.475Z,15.28
2023-05-19T08:24:36.399Z,15.24
2023-05-19T08:25:36.350Z,15.39
2023-05-19T08:26:37.835Z,15.48
2023-05-19T08:27:36.165Z,15.51
2023-05-19T08:28:36.087Z,15.42
2023-05-19T08:29:56.996Z,15.60
2023-05-19T08:30:35.925Z,15.53
2023-05-19T08:31:35.903Z,15.55
2023-05-19T08:32:35.794Z,15.52
2023-05-19T08:33:35.698Z,15.53
2023-05-19T08:34:35.628Z,15.46
2023-05-19T08:35:56.521Z,15.52
2023-05-19T08:36:35.469Z,15.42
2023-05-19T08:37:35.390Z,15.48
2023-05-19T08:38:35.318Z,15.38
2023-05-19T08:39:35.229Z,15.28
2023-05-19T08:40:35.323Z,15.42
2023-05-19T08:41:56.060Z,15.38
2023-05-19T08:42:34.993Z,15.31
2023-05-19T08:43:34.917Z,15.31
2023-05-19T08:44:34.838Z,15.33
2023-05-19T08:45:34.966Z,15.30
2023-05-19T08:46:34.736Z,15.34
2023-05-19T08:47:55.659Z,15.43
2023-05-19T08:48:34.535Z,15.34
2023-05-19T08:49:34.448Z,15.38
2023-05-19T08:50:34.604Z,15.49
2023-05-19T08:51:34.290Z,15.46
2023-05-19T08:52:34.207Z,15.49
2023-05-19T08:53:55.115Z,15.45
2023-05-19T08:54:34.055Z,15.49
2023-05-19T08:55:34.302Z,15.48
2023-05-19T08:56:33.887Z,15.39
2023-05-19T08:57:33.811Z,15.49
2023-05-19T08:58:33.760Z,15.55
2023-05-19T08:59:54.655Z,15.55
2023-05-19T09:00:33.870Z,15.59
2023-05-19T09:01:33.601Z,15.61
2023-05-19T09:02:33.461Z,15.63
2023-05-19T09:03:33.418Z,15.59
2023-05-19T09:04:33.360Z,15.55
2023-05-19T09:05:54.228Z,15.51
2023-05-19T09:06:33.114Z,15.52
2023-05-19T09:07:33.040Z,15.51
2023-05-19T09:08:32.962Z,15.51
2023-05-19T09:09:32.898Z,15.57
2023-05-19T09:10:32.801Z,15.51
2023-05-19T09:11:53.722Z,15.59
2023-05-19T09:12:32.637Z,15.61
2023-05-19T09:13:32.572Z,15.63
2023-05-19T09:14:32.481Z,15.68
2023-05-19T09:15:32.742Z,15.70
2023-05-19T09:16:32.367Z,15.83
2023-05-19T09:17:53.267Z,15.78
2023-05-19T09:18:32.183Z,15.89
2023-05-19T09:19:32.293Z,15.91
2023-05-19T09:20:32.019Z,15.88
2023-05-19T09:21:31.972Z,15.91
2023-05-19T09:22:31.865Z,15.94
2023-05-19T09:23:52.792Z,15.91
2023-05-19T09:24:31.711Z,15.88
2023-05-19T09:25:31.815Z,15.88
2023-05-19T09:26:31.563Z,15.88
2023-05-19T09:27:31.482Z,15.88
2023-05-19T09:28:31.408Z,15.85
2023-05-19T09:29:52.301Z,15.81
2023-05-19T09:30:31.242Z,15.73
2023-05-19T09:31:31.198Z,15.71
2023-05-19T09:32:31.220Z,15.70
2023-05-19T09:33:31.052Z,15.78
2023-05-19T09:34:30.929Z,15.75
2023-05-19T09:35:51.851Z,15.60
2023-05-19T09:36:30.769Z,15.57
2023-05-19T09:37:30.706Z,15.53
2023-05-19T09:38:30.668Z,15.63
2023-05-19T09:39:30.558Z,15.55
2023-05-19T09:40:30.459Z,15.38
2023-05-19T09:41:51.367Z,15.43
2023-05-19T09:42:30.307Z,15.34
2023-05-19T09:43:30.256Z,15.51
2023-05-19T09:44:30.164Z,15.57
2023-05-19T09:45:30.143Z,15.51
2023-05-19T09:46:30.004Z,15.55
2023-05-19T09:47:50.909Z,15.57
2023-05-19T09:48:29.831Z,15.61
2023-05-19T09:49:29.780Z,15.63
2023-05-19T09:50:29.706Z,15.60
2023-05-19T09:51:29.607Z,15.75
2023-05-19T09:52:29.515Z,15.68
2023-05-19T09:53:50.446Z,15.70
2023-05-19T09:54:29.374Z,15.64
2023-05-19T09:55:29.297Z,15.67
2023-05-19T09:56:29.211Z,15.70
2023-05-19T09:57:29.155Z,15.78
2023-05-19T09:58:29.053Z,15.82
2023-05-19T09:59:49.980Z,15.79
2023-05-19T10:00:28.900Z,15.82
2023-05-19T10:01:28.868Z,15.88
2023-05-19T10:02:28.782Z,15.83
2023-05-19T10:03:28.683Z,15.86
2023-05-19T10:04:28.636Z,15.88
2023-05-19T10:05:49.494Z,15.97
2023-05-19T10:06:28.442Z,16.01
2023-05-19T10:07:28.358Z,16.07
2023-05-19T10:08:28.286Z,16.14
2023-05-19T10:09:28.237Z,16.22
2023-05-19T10:10:28.123Z,16.16
2023-05-19T10:11:49.031Z,16.20
2023-05-19T10:12:27.992Z,16.30
2023-05-19T10:13:27.941Z,16.34
2023-05-19T10:14:27.812Z,16.40
2023-05-19T10:15:27.732Z,16.42
2023-05-19T10:16:27.712Z,16.41
2023-05-19T10:17:48.605Z,16.35
2023-05-19T10:18:27.500Z,16.38
2023-05-19T10:19:27.556Z,16.38
2023-05-19T10:20:27.338Z,16.38
2023-05-19T10:21:27.265Z,16.48
2023-05-19T10:22:27.204Z,16.59
2023-05-19T10:23:48.078Z,16.70
2023-05-19T10:24:27.057Z,16.62
2023-05-19T10:25:26.965Z,16.53
2023-05-19T10:26:26.877Z,16.45
2023-05-19T10:27:26.798Z,16.41
2023-05-19T10:28:26.729Z,16.45
2023-05-19T10:29:47.642Z,16.45
2023-05-19T10:30:26.569Z,16.50
2023-05-19T10:31:26.500Z,16.55
2023-05-19T10:32:26.483Z,16.67
2023-05-19T10:33:26.329Z,16.62
2023-05-19T10:34:26.274Z,16.77
2023-05-19T10:35:47.343Z,16.73
2023-05-19T10:36:26.107Z,16.82
2023-05-19T10:37:26.030Z,16.78
2023-05-19T10:38:25.973Z,16.88
2023-05-19T10:39:25.871Z,16.84
2023-05-19T10:40:25.801Z,16.88
2023-05-19T10:41:47.028Z,16.88
2023-05-19T10:42:25.638Z,16.90
2023-05-19T10:43:25.567Z,16.84
2023-05-19T10:44:25.488Z,16.85
2023-05-19T10:45:25.464Z,16.99
2023-05-19T10:46:25.440Z,16.98
2023-05-19T10:47:46.293Z,16.95
2023-05-19T10:48:25.172Z,16.95
2023-05-19T10:49:25.096Z,16.88
2023-05-19T10:50:25.035Z,16.67
2023-05-19T10:51:24.936Z,16.59
2023-05-19T10:52:24.866Z,16.65
2023-05-19T10:53:45.770Z,16.53
2023-05-19T10:54:24.720Z,16.47
2023-05-19T10:55:24.643Z,16.44
2023-05-19T10:56:24.562Z,16.42
2023-05-19T10:57:24.473Z,16.44
2023-05-19T10:58:24.410Z,16.48
2023-05-19T10:59:45.324Z,16.52
2023-05-19T11:00:24.253Z,16.55
2023-05-19T11:01:24.193Z,16.60
2023-05-19T11:02:24.160Z,16.62
2023-05-19T11:03:24.498Z,16.75
2023-05-19T11:04:24.054Z,16.85
2023-05-19T11:05:44.851Z,16.90
2023-05-19T11:06:23.796Z,17.03
2023-05-19T11:07:23.704Z,17.13
2023-05-19T11:08:23.642Z,17.14
2023-05-19T11:09:34.170Z,17.08
2023-05-19T11:10:23.473Z,17.13
2023-05-19T11:11:44.396Z,17.14
2023-05-19T11:12:24.749Z,17.08
2023-05-19T11:13:23.408Z,17.08
2023-05-19T11:14:23.237Z,17.13
2023-05-19T11:15:23.104Z,17.25
2023-05-19T11:16:23.036Z,17.21
2023-05-19T11:17:43.937Z,17.28
2023-05-19T11:18:22.861Z,17.33
2023-05-19T11:19:22.865Z,17.46
2023-05-19T11:20:22.717Z,17.66
2023-05-19T11:21:22.685Z,17.60
2023-05-19T11:22:22.549Z,17.69
2023-05-19T11:23:43.517Z,17.74
2023-05-19T11:24:22.422Z,17.85
2023-05-19T11:25:22.307Z,17.95
2023-05-19T11:26:22.254Z,18.03
2023-05-19T11:27:22.164Z,18.10
2023-05-19T11:28:22.087Z,18.07
2023-05-19T11:29:43.003Z,18.06
2023-05-19T11:30:21.933Z,18.00
2023-05-19T11:31:21.884Z,17.92
2023-05-19T11:32:21.842Z,17.88
2023-05-19T11:33:21.848Z,17.89
2023-05-19T11:34:21.633Z,18.02
2023-05-19T11:35:42.555Z,17.98
2023-05-19T11:36:21.477Z,17.95
2023-05-19T11:37:21.391Z,18.02
2023-05-19T11:38:21.321Z,18.06
2023-05-19T11:39:21.250Z,18.10
2023-05-19T11:40:21.172Z,18.31
2023-05-19T11:41:42.068Z,18.42
2023-05-19T11:42:21.041Z,18.55
2023-05-19T11:43:20.936Z,18.59
2023-05-19T11:44:20.882Z,18.73
2023-05-19T11:45:20.788Z,18.71
2023-05-19T11:46:20.758Z,18.76
2023-05-19T11:47:56.509Z,18.67
2023-05-19T11:48:20.624Z,18.77
2023-05-19T11:49:20.477Z,18.68
2023-05-19T11:50:20.650Z,18.57
2023-05-19T11:51:20.334Z,18.39
2023-05-19T11:52:20.257Z,18.25
2023-05-19T11:53:41.152Z,18.06
2023-05-19T11:54:20.112Z,18.06
2023-05-19T11:55:20.040Z,17.98
2023-05-19T11:56:19.966Z,18.07
2023-05-19T11:57:19.868Z,18.11
2023-05-19T11:58:19.794Z,18.09
2023-05-19T11:59:40.686Z,18.06
2023-05-19T12:00:19.630Z,18.21
2023-05-19T12:01:19.571Z,18.32
2023-05-19T12:02:19.519Z,18.35
2023-05-19T12:03:19.457Z,18.50
2023-05-19T12:04:19.336Z,18.57
2023-05-19T12:05:43.235Z,18.61
2023-05-19T12:06:19.267Z,18.82
2023-05-19T12:07:19.175Z,19.01
2023-05-19T12:08:19.062Z,19.20
2023-05-19T12:09:18.960Z,19.21
2023-05-19T12:10:18.891Z,19.31
2023-05-19T12:11:39.767Z,19.35
2023-05-19T12:12:18.739Z,19.32
2023-05-19T12:13:18.660Z,19.35
2023-05-19T12:14:18.576Z,19.40
2023-05-19T12:15:18.520Z,19.31
2023-05-19T12:16:18.490Z,19.32
2023-05-19T12:17:39.324Z,19.28
2023-05-19T12:18:18.272Z,19.05
2023-05-19T12:19:18.241Z,19.20
2023-05-19T12:20:18.119Z,19.35
2023-05-19T12:21:18.026Z,19.33
2023-05-19T12:22:17.975Z,19.31
2023-05-19T12:23:38.857Z,19.28
2023-05-19T12:24:17.805Z,18.99
2023-05-19T12:25:17.738Z,18.94
2023-05-19T12:26:17.644Z,18.94
2023-05-19T12:27:17.572Z,19.06
2023-05-19T12:28:17.521Z,19.15
2023-05-19T12:29:38.425Z,19.25
2023-05-19T12:30:17.370Z,19.31
2023-05-19T12:31:17.307Z,19.33
2023-05-19T12:32:17.209Z,19.31
2023-05-19T12:33:17.155Z,19.31
2023-05-19T12:34:17.059Z,19.32
2023-05-19T12:35:37.952Z,19.38
2023-05-19T12:36:16.914Z,19.25
2023-05-19T12:37:16.830Z,19.17
2023-05-19T12:38:16.757Z,18.98
2023-05-19T12:39:16.693Z,19.05
2023-05-19T12:40:16.595Z,19.06
2023-05-19T12:41:37.503Z,19.32
2023-05-19T12:42:16.490Z,19.32
2023-05-19T12:43:16.366Z,19.38
2023-05-19T12:44:16.300Z,19.53
2023-05-19T12:45:16.213Z,19.63
2023-05-19T12:46:16.178Z,19.68
2023-05-19T12:47:37.093Z,19.73
2023-05-19T12:48:16.123Z,19.90
2023-05-19T12:49:15.924Z,20.05
2023-05-19T12:50:15.835Z,20.08
2023-05-19T12:51:15.767Z,20.09
2023-05-19T12:52:15.713Z,20.13
2023-05-19T12:53:36.600Z,20.19